2024-02-15:

We're in the news: Funding dries up for Island's school-based weather network

temperature
    1      6.80  2024 04 21 23 47   48.46990  236.68100     5
    3      6.00  2024 04 21 23 47   48.47760  236.58299     1
    4      7.60  2024 04 21 23 47   48.44080  236.66100     1
    7      7.10  2024 04 21 23 47   48.46550  236.67900     1
   18      6.70  2024 04 21 23 47   48.48650  236.67599     1
   19      8.30  2024 04 21 23 47   48.41820  236.68600     1
   20      6.40  2024 04 21 23 47   48.47880  236.63499     1
   24      6.60  2024 04 21 23 47   48.48490  236.68600     1
   34      7.10  2024 04 21 23 47   48.45290  236.52299     3
   39      6.90  2024 04 21 23 47   48.46550  236.49400     3
   42      7.00  2024 04 21 23 47   48.56210  236.53400     2
   43      7.80  2024 04 21 23 47   48.45220  236.73300     5
   55      7.40  2024 04 21 23 47   48.44880  236.51401     3
   57      7.00  2024 04 21 23 47   48.42180  236.50500     3
   61      6.80  2024 04 21 23 47   48.52730  236.63000     4
   68      7.40  2024 04 21 23 47   48.56970  236.54700     4
   71      4.20  2024 04 21 23 47   48.53760  236.49899    11
   72      9.30  2024 04 21 23 47   48.29838  236.46838     5
   79      7.30  2024 04 21 23 47   48.47130  236.69299     1
   89      9.40  2024 04 21 23 47   49.31120  235.67300    21
   90      6.40  2024 04 21 23 47   48.45710  236.56300     1
   98      8.30  2024 04 21 23 47   48.41610  236.67000     1
  100      5.00  2024 04 21 23 47   48.48110  236.48700    11
  104      6.10  2024 04 21 23 47   48.42810  236.47099     3
  109      7.40  2024 04 21 23 47   48.57450  236.55400     4
  123      8.70  2024 04 21 23 47   49.15670  236.03101    23
  128      6.90  2024 04 21 23 47   48.43600  236.53700     3
  130      5.40  2024 04 21 23 47   48.98460  236.17200    20
  132      4.90  2024 04 21 23 47   48.61540  236.36900    14
  133      5.60  2024 04 21 23 47   48.65230  236.34900    10
  134      7.00  2024 04 21 23 47   48.46480  236.62601     5
  143      7.80  2024 04 21 23 47   48.46230  236.69099     5
  188      7.60  2024 04 21 23 47   48.66570  236.58200     4
  190      8.70  2024 04 21 23 47   49.68220  235.00101    30
  200      5.40  2024 04 21 23 47   48.48800  236.67300     5
  207      5.80  2024 04 21 23 47   49.98010  234.75500    35
  215      7.20  2024 04 21 23 47   48.46180  236.59500     5
  228      8.60  2024 04 21 23 47   48.43951  236.62003     5
  234      6.40  2024 04 21 23 47   48.88760  236.62149    45
  235      5.60  2024 04 21 23 47   48.92833  236.53203    45
  237      7.50  2024 04 21 23 47   48.96380  236.44890    45
  238      4.30  2024 04 21 23 47   48.88512  236.64799    45
  273      9.30  2024 04 21 23 47   48.70929  236.58862    40
  281      7.10  2024 04 21 23 47   48.46394  236.69345     5
humidity
    1     73.00  2024 04 21 23 47   48.46990  236.68100     5
    3     76.00  2024 04 21 23 47   48.47760  236.58299     1
    4     69.00  2024 04 21 23 47   48.44080  236.66100     1
    7     81.00  2024 04 21 23 47   48.46550  236.67900     1
   18     73.00  2024 04 21 23 47   48.48650  236.67599     1
   20     74.00  2024 04 21 23 47   48.47880  236.63499     1
   34     55.00  2024 04 21 23 47   48.45290  236.52299     3
   39     77.00  2024 04 21 23 47   48.46550  236.49400     3
   42     78.00  2024 04 21 23 47   48.56210  236.53400     2
   43     74.00  2024 04 21 23 47   48.45220  236.73300     5
   57     75.00  2024 04 21 23 47   48.42180  236.50500     3
   68     55.00  2024 04 21 23 47   48.56970  236.54700     4
   79     80.00  2024 04 21 23 47   48.47130  236.69299     1
   89     57.00  2024 04 21 23 47   49.31120  235.67300    21
   90     75.00  2024 04 21 23 47   48.45710  236.56300     1
   98     64.00  2024 04 21 23 47   48.41610  236.67000     1
  100     86.00  2024 04 21 23 47   48.48110  236.48700    11
  104     15.00  2024 04 21 23 47   48.42810  236.47099     3
  109     51.00  2024 04 21 23 47   48.57450  236.55400     4
  123     65.00  2024 04 21 23 47   49.15670  236.03101    23
  128     76.00  2024 04 21 23 47   48.43600  236.53700     3
  130     72.00  2024 04 21 23 47   48.98460  236.17200    20
  132     86.00  2024 04 21 23 47   48.61540  236.36900    14
  133     83.00  2024 04 21 23 47   48.65230  236.34900    10
  134     80.00  2024 04 21 23 47   48.46480  236.62601     5
  143     71.00  2024 04 21 23 47   48.46230  236.69099     5
  188     74.00  2024 04 21 23 47   48.66570  236.58200     4
  190     79.00  2024 04 21 23 47   49.68220  235.00101    30
  200     85.00  2024 04 21 23 47   48.48800  236.67300     5
  207    100.00  2024 04 21 23 47   49.98010  234.75500    35
  215     76.00  2024 04 21 23 47   48.46180  236.59500     5
  228     75.00  2024 04 21 23 47   48.43951  236.62003     5
  234     81.00  2024 04 21 23 47   48.88760  236.62149    45
  235     64.00  2024 04 21 23 47   48.92833  236.53203    45
  237     60.00  2024 04 21 23 47   48.96380  236.44890    45
  273     60.00  2024 04 21 23 47   48.70929  236.58862    40
  281     75.00  2024 04 21 23 47   48.46394  236.69345     5
wind
    1      0.40  2024 04 21 23 47   48.46990  236.68100     5
    3      0.00  2024 04 21 23 47   48.47760  236.58299     1
    4      0.00  2024 04 21 23 47   48.44080  236.66100     1
    7      0.00  2024 04 21 23 47   48.46550  236.67900     1
   10      1.80  2024 04 21 23 47   48.42530  236.59500     1
   18      0.00  2024 04 21 23 47   48.48650  236.67599     1
   19      0.00  2024 04 21 23 47   48.41820  236.68600     1
   20      0.00  2024 04 21 23 47   48.47880  236.63499     1
   24      0.00  2024 04 21 23 47   48.48490  236.68600     1
   34      2.30  2024 04 21 23 47   48.45290  236.52299     3
   39      0.00  2024 04 21 23 47   48.46550  236.49400     3
   42      0.00  2024 04 21 23 47   48.56210  236.53400     2
   43      3.00  2024 04 21 23 47   48.45220  236.73300     5
   55      1.10  2024 04 21 23 47   48.44880  236.51401     3
   57      0.00  2024 04 21 23 47   48.42180  236.50500     3
   61      0.00  2024 04 21 23 47   48.52730  236.63000     4
   62      0.90  2024 04 21 23 47   48.68040  236.54300     4
   68      0.00  2024 04 21 23 47   48.56970  236.54700     4
   71      0.00  2024 04 21 23 47   48.53760  236.49899    11
   72      0.00  2024 04 21 23 47   48.29838  236.46838     5
   79      0.00  2024 04 21 23 47   48.47130  236.69299     1
   82      0.70  2024 04 21 23 47   48.46080  236.60699     1
   89      2.10  2024 04 21 23 47   49.31120  235.67300    21
   90      0.00  2024 04 21 23 47   48.45710  236.56300     1
   98      0.00  2024 04 21 23 47   48.41610  236.67000     1
  100      0.00  2024 04 21 23 47   48.48110  236.48700    11
  104      0.00  2024 04 21 23 47   48.42810  236.47099     3
  109      0.20  2024 04 21 23 47   48.57450  236.55400     4
  123      0.60  2024 04 21 23 47   49.15670  236.03101    23
  128      0.00  2024 04 21 23 47   48.43600  236.53700     3
  130      1.50  2024 04 21 23 47   48.98460  236.17200    20
  132      0.00  2024 04 21 23 47   48.61540  236.36900    14
  133      0.30  2024 04 21 23 47   48.65230  236.34900    10
  143      1.80  2024 04 21 23 47   48.46230  236.69099     5
  188      1.00  2024 04 21 23 47   48.66570  236.58200     4
  189      0.60  2024 04 21 23 47   49.70950  235.08600    30
  190      0.00  2024 04 21 23 47   49.68220  235.00101    30
  200      0.00  2024 04 21 23 47   48.48800  236.67300     5
  205      0.00  2024 04 21 23 47   49.96700  234.78400    35
  206      0.00  2024 04 21 23 47   49.97270  234.76100    35
  207      0.00  2024 04 21 23 47   49.98010  234.75500    35
  211      0.00  2024 04 21 23 47   50.05990  235.01700    35
  215      0.00  2024 04 21 23 47   48.46180  236.59500     5
  228      0.90  2024 04 21 23 47   48.43951  236.62003     5
  234      0.00  2024 04 21 23 47   48.88760  236.62149    45
  235      0.00  2024 04 21 23 47   48.92833  236.53203    45
  237      0.90  2024 04 21 23 47   48.96380  236.44890    45
  238      0.00  2024 04 21 23 47   48.88512  236.64799    45
  273      1.30  2024 04 21 23 47   48.70929  236.58862    40
  281      4.50  2024 04 21 23 47   48.46394  236.69345     5
winddir
    1    255.00  2024 04 21 23 47   48.46990  236.68100     5
    3    265.00  2024 04 21 23 47   48.47760  236.58299     1
    4    260.00  2024 04 21 23 47   48.44080  236.66100     1
    7    199.00  2024 04 21 23 47   48.46550  236.67900     1
   10    252.00  2024 04 21 23 47   48.42530  236.59500     1
   18    217.00  2024 04 21 23 47   48.48650  236.67599     1
   19    244.00  2024 04 21 23 47   48.41820  236.68600     1
   20    196.00  2024 04 21 23 47   48.47880  236.63499     1
   24    262.00  2024 04 21 23 47   48.48490  236.68600     1
   34    360.00  2024 04 21 23 47   48.45290  236.52299     3
   39    188.00  2024 04 21 23 47   48.46550  236.49400     3
   42     97.00  2024 04 21 23 47   48.56210  236.53400     2
   43    252.00  2024 04 21 23 47   48.45220  236.73300     5
   55    264.00  2024 04 21 23 47   48.44880  236.51401     3
   57    243.00  2024 04 21 23 47   48.42180  236.50500     3
   61    253.00  2024 04 21 23 47   48.52730  236.63000     4
   62    293.00  2024 04 21 23 47   48.68040  236.54300     4
   68    256.00  2024 04 21 23 47   48.56970  236.54700     4
   71    108.00  2024 04 21 23 47   48.53760  236.49899    11
   72    169.00  2024 04 21 23 47   48.29838  236.46838     5
   79    275.00  2024 04 21 23 47   48.47130  236.69299     1
   82    204.00  2024 04 21 23 47   48.46080  236.60699     1
   89    360.00  2024 04 21 23 47   49.31120  235.67300    21
   90    181.00  2024 04 21 23 47   48.45710  236.56300     1
   98    360.00  2024 04 21 23 47   48.41610  236.67000     1
  100    222.00  2024 04 21 23 47   48.48110  236.48700    11
  104    360.00  2024 04 21 23 47   48.42810  236.47099     3
  109    313.00  2024 04 21 23 47   48.57450  236.55400     4
  123    266.00  2024 04 21 23 47   49.15670  236.03101    23
  128    303.00  2024 04 21 23 47   48.43600  236.53700     3
  130    317.00  2024 04 21 23 47   48.98460  236.17200    20
  132    350.00  2024 04 21 23 47   48.61540  236.36900    14
  133    255.00  2024 04 21 23 47   48.65230  236.34900    10
  143    255.00  2024 04 21 23 47   48.46230  236.69099     5
  188    198.00  2024 04 21 23 47   48.66570  236.58200     4
  189    313.00  2024 04 21 23 47   49.70950  235.08600    30
  190    255.00  2024 04 21 23 47   49.68220  235.00101    30
  200    198.00  2024 04 21 23 47   48.48800  236.67300     5
  205    276.00  2024 04 21 23 47   49.96700  234.78400    35
  206    298.00  2024 04 21 23 47   49.97270  234.76100    35
  207    278.00  2024 04 21 23 47   49.98010  234.75500    35
  211    215.00  2024 04 21 23 47   50.05990  235.01700    35
  215    187.00  2024 04 21 23 47   48.46180  236.59500     5
  228    233.00  2024 04 21 23 47   48.43951  236.62003     5
  234      5.00  2024 04 21 23 47   48.88760  236.62149    45
  235    273.00  2024 04 21 23 47   48.92833  236.53203    45
  237     71.00  2024 04 21 23 47   48.96380  236.44890    45
  238     32.00  2024 04 21 23 47   48.88512  236.64799    45
  273     17.00  2024 04 21 23 47   48.70929  236.58862    40
  281    302.00  2024 04 21 23 47   48.46394  236.69345     5
solar
    1      0.00  2024 04 21 23 47   48.46990  236.68100     5
    3      0.00  2024 04 21 23 47   48.47760  236.58299     1
    4      0.00  2024 04 21 23 47   48.44080  236.66100     1
    7      0.00  2024 04 21 23 47   48.46550  236.67900     1
   10      0.00  2024 04 21 23 47   48.42530  236.59500     1
   18      0.00  2024 04 21 23 47   48.48650  236.67599     1
   19      0.00  2024 04 21 23 47   48.41820  236.68600     1
   20      0.00  2024 04 21 23 47   48.47880  236.63499     1
   24      0.00  2024 04 21 23 47   48.48490  236.68600     1
   34      0.00  2024 04 21 23 47   48.45290  236.52299     3
   39      0.00  2024 04 21 23 47   48.46550  236.49400     3
   42      0.00  2024 04 21 23 47   48.56210  236.53400     2
   55      0.00  2024 04 21 23 47   48.44880  236.51401     3
   57      0.00  2024 04 21 23 47   48.42180  236.50500     3
   61      0.00  2024 04 21 23 47   48.52730  236.63000     4
   62      0.00  2024 04 21 23 47   48.68040  236.54300     4
   68      0.00  2024 04 21 23 47   48.56970  236.54700     4
   71      0.00  2024 04 21 23 47   48.53760  236.49899    11
   72      0.00  2024 04 21 23 47   48.29838  236.46838     5
   79      0.00  2024 04 21 23 47   48.47130  236.69299     1
   82      0.00  2024 04 21 23 47   48.46080  236.60699     1
   89      0.00  2024 04 21 23 47   49.31120  235.67300    21
   90      0.00  2024 04 21 23 47   48.45710  236.56300     1
   98      0.00  2024 04 21 23 47   48.41610  236.67000     1
  100      0.00  2024 04 21 23 47   48.48110  236.48700    11
  104      0.00  2024 04 21 23 47   48.42810  236.47099     3
  109      0.00  2024 04 21 23 47   48.57450  236.55400     4
  123      0.00  2024 04 21 23 47   49.15670  236.03101    23
  128      0.00  2024 04 21 23 47   48.43600  236.53700     3
  130      0.00  2024 04 21 23 47   48.98460  236.17200    20
  132      0.00  2024 04 21 23 47   48.61540  236.36900    14
  133      0.00  2024 04 21 23 47   48.65230  236.34900    10
  134      0.00  2024 04 21 23 47   48.46480  236.62601     5
  143      0.00  2024 04 21 23 47   48.46230  236.69099     5
  188      0.00  2024 04 21 23 47   48.66570  236.58200     4
  189      0.00  2024 04 21 23 47   49.70950  235.08600    30
  190      0.00  2024 04 21 23 47   49.68220  235.00101    30
  200      0.00  2024 04 21 23 47   48.48800  236.67300     5
  205      0.00  2024 04 21 23 47   49.96700  234.78400    35
  206      0.00  2024 04 21 23 47   49.97270  234.76100    35
  207      0.00  2024 04 21 23 47   49.98010  234.75500    35
  211      0.00  2024 04 21 23 47   50.05990  235.01700    35
  215      0.00  2024 04 21 23 47   48.46180  236.59500     5
  228      0.00  2024 04 21 23 47   48.43951  236.62003     5
  234      0.00  2024 04 21 23 47   48.88760  236.62149    45
  235      0.00  2024 04 21 23 47   48.92833  236.53203    45
  273   1774.00  2024 04 21 23 47   48.70929  236.58862    40
  281      0.00  2024 04 21 23 47   48.46394  236.69345     5
uv
    3      0.00  2024 04 21 23 47   48.47760  236.58299     1
    4      0.00  2024 04 21 23 47   48.44080  236.66100     1
    7      0.00  2024 04 21 23 47   48.46550  236.67900     1
   10      0.00  2024 04 21 23 47   48.42530  236.59500     1
   18      0.00  2024 04 21 23 47   48.48650  236.67599     1
   19      0.00  2024 04 21 23 47   48.41820  236.68600     1
   20      0.00  2024 04 21 23 47   48.47880  236.63499     1
   24      0.00  2024 04 21 23 47   48.48490  236.68600     1
   34      0.00  2024 04 21 23 47   48.45290  236.52299     3
   39      0.00  2024 04 21 23 47   48.46550  236.49400     3
   42      0.00  2024 04 21 23 47   48.56210  236.53400     2
   55      0.00  2024 04 21 23 47   48.44880  236.51401     3
   61      0.00  2024 04 21 23 47   48.52730  236.63000     4
   62      0.00  2024 04 21 23 47   48.68040  236.54300     4
   68      0.00  2024 04 21 23 47   48.56970  236.54700     4
   71      0.00  2024 04 21 23 47   48.53760  236.49899    11
   72      0.00  2024 04 21 23 47   48.29838  236.46838     5
   79      0.00  2024 04 21 23 47   48.47130  236.69299     1
   82      0.00  2024 04 21 23 47   48.46080  236.60699     1
   89      0.00  2024 04 21 23 47   49.31120  235.67300    21
   90      0.00  2024 04 21 23 47   48.45710  236.56300     1
   98      0.00  2024 04 21 23 47   48.41610  236.67000     1
  104      0.00  2024 04 21 23 47   48.42810  236.47099     3
  109      0.00  2024 04 21 23 47   48.57450  236.55400     4
  123      0.00  2024 04 21 23 47   49.15670  236.03101    23
  128      0.00  2024 04 21 23 47   48.43600  236.53700     3
  130      0.00  2024 04 21 23 47   48.98460  236.17200    20
  132      0.00  2024 04 21 23 47   48.61540  236.36900    14
  134      0.00  2024 04 21 23 47   48.46480  236.62601     5
  143      0.00  2024 04 21 23 47   48.46230  236.69099     5
  188      0.00  2024 04 21 23 47   48.66570  236.58200     4
  189      0.00  2024 04 21 23 47   49.70950  235.08600    30
  190      0.00  2024 04 21 23 47   49.68220  235.00101    30
  200      0.00  2024 04 21 23 47   48.48800  236.67300     5
  205      0.00  2024 04 21 23 47   49.96700  234.78400    35
  206      0.00  2024 04 21 23 47   49.97270  234.76100    35
  207      0.00  2024 04 21 23 47   49.98010  234.75500    35
  211      0.00  2024 04 21 23 47   50.05990  235.01700    35
  215      0.00  2024 04 21 23 47   48.46180  236.59500     5
  228      0.00  2024 04 21 23 47   48.43951  236.62003     5
  234      0.00  2024 04 21 23 47   48.88760  236.62149    45
  235      0.00  2024 04 21 23 47   48.92833  236.53203    45
  273      0.00  2024 04 21 23 47   48.70929  236.58862    40
  281      0.00  2024 04 21 23 47   48.46394  236.69345     5
raintotal
    1      2.00  2024 04 21 23 47   48.46990  236.68100     5
    3      3.80  2024 04 21 23 47   48.47760  236.58299     1
    4      2.80  2024 04 21 23 47   48.44080  236.66100     1
    7      3.30  2024 04 21 23 47   48.46550  236.67900     1
   10      1.50  2024 04 21 23 47   48.42530  236.59500     1
   15      1.00  2024 04 21 23 47   48.41530  236.65199     1
   16      0.00  2024 04 21 23 47   48.45190  236.60699     1
   18      4.30  2024 04 21 23 47   48.48650  236.67599     1
   19      1.00  2024 04 21 23 47   48.41820  236.68600     1
   20      4.10  2024 04 21 23 47   48.47880  236.63499     1
   24      4.80  2024 04 21 23 47   48.48490  236.68600     1
   34      3.00  2024 04 21 23 47   48.45290  236.52299     3
   39      2.30  2024 04 21 23 47   48.46550  236.49400     3
   42      0.00  2024 04 21 23 47   48.56210  236.53400     2
   43      1.60  2024 04 21 23 47   48.45220  236.73300     5
   55      0.00  2024 04 21 23 47   48.44880  236.51401     3
   60      0.00  2024 04 21 23 47   48.43820  236.60400     1
   61      0.00  2024 04 21 23 47   48.52730  236.63000     4
   62      0.80  2024 04 21 23 47   48.68040  236.54300     4
   64      0.00  2024 04 21 23 47   48.50140  236.63901     4
   66      0.50  2024 04 21 23 47   48.52340  236.56700     4
   67      0.00  2024 04 21 23 47   48.65290  236.59599     4
   68      1.30  2024 04 21 23 47   48.56970  236.54700     4
   71      3.00  2024 04 21 23 47   48.53760  236.49899    11
   72      0.00  2024 04 21 23 47   48.29838  236.46838     5
   73      0.00  2024 04 21 23 47   48.45370  236.57899     1
   79      2.50  2024 04 21 23 47   48.47130  236.69299     1
   80      0.00  2024 04 21 23 47   48.48210  236.67000     1
   82      1.80  2024 04 21 23 47   48.46080  236.60699     1
   89      0.20  2024 04 21 23 47   49.31120  235.67300    21
   90      3.30  2024 04 21 23 47   48.45710  236.56300     1
   98      1.00  2024 04 21 23 47   48.41610  236.67000     1
  100      1.00  2024 04 21 23 47   48.48110  236.48700    11
  104      0.00  2024 04 21 23 47   48.42810  236.47099     3
  109      1.00  2024 04 21 23 47   48.57450  236.55400     4
  120      0.00  2024 04 21 23 47   48.77670  236.55299    40
  122      0.00  2024 04 21 23 47   48.85030  236.49400    40
  123      0.20  2024 04 21 23 47   49.15670  236.03101    23
  128      2.30  2024 04 21 23 47   48.43600  236.53700     3
  130      0.00  2024 04 21 23 47   48.98460  236.17200    20
  132      5.30  2024 04 21 23 47   48.61540  236.36900    14
  133      4.80  2024 04 21 23 47   48.65230  236.34900    10
  134      2.50  2024 04 21 23 47   48.46480  236.62601     5
  143      3.80  2024 04 21 23 47   48.46230  236.69099     5
  174      0.00  2024 04 21 23 47   48.62580  236.57700     4
  188      1.00  2024 04 21 23 47   48.66570  236.58200     4
  189      0.00  2024 04 21 23 47   49.70950  235.08600    30
  190      0.00  2024 04 21 23 47   49.68220  235.00101    30
  191      0.00  2024 04 21 23 47   49.62120  234.96700    30
  197      0.00  2024 04 21 23 47   48.52190  236.58000     5
  200      4.00  2024 04 21 23 47   48.48800  236.67300     5
  206      0.00  2024 04 21 23 47   49.97270  234.76100    35
  207      0.00  2024 04 21 23 47   49.98010  234.75500    35
  211      0.00  2024 04 21 23 47   50.05990  235.01700    35
  215      1.50  2024 04 21 23 47   48.46180  236.59500     5
  228      0.00  2024 04 21 23 47   48.43951  236.62003     5
  234      0.20  2024 04 21 23 47   48.88760  236.62149    45
  235      0.00  2024 04 21 23 47   48.92833  236.53203    45
  237      0.00  2024 04 21 23 47   48.96380  236.44890    45
  238      0.00  2024 04 21 23 47   48.88512  236.64799    45
  273      0.50  2024 04 21 23 47   48.70929  236.58862    40
  281      3.00  2024 04 21 23 47   48.46394  236.69345     5
Error 1055 : Expression #1 of SELECT list is not in GROUP BY clause and contains nonaggregated column 'meteo.sdata.timekey' which is not functionally dependent on columns in GROUP BY clause; this is incompatible with sql_mode=only_full_group_by
NumberStation Name